Terminal Aerodrome Forecast
Issued by NWS Goodland, KS

Home | Current Version | Previous Version | Text Only | Print | Product List | Glossary On
Versions: 1 2 3 4 5 6 7 8 9 10 11 12 13 14 15 16
000
FTUS43 KGLD 230500 RRA
TAFGLD
TAF
KGLD 230547Z 2306/2406 16023G31KT P6SM SCT120
     FM231000 19025G35KT P6SM SCT120
     FM231600 22025G35KT P6SM SCT150
     FM232100 27020G30KT P6SM VCTS SCT090CB
     FM232200 35015G30KT 6SM BLDU VCTS SCT090CB
     FM240000 36030G35KT 4SM BLDU VCTS BKN080CB=

USA.gov is the U.S. government's official web portal to all federal, state and local government web resources and services.